sensor_id;sensor_type;location;lat;lon;timestamp;pressure;altitude;pressure_sealevel;temperature;humidity
69982;BME280;57319;56.274;43.980;2023-09-12T00:01:40;100029.50;;;8.99;97.04
69982;BME280;57319;56.274;43.980;2023-09-12T00:04:06;100020.94;;;9.04;96.88
69982;BME280;57319;56.274;43.980;2023-09-12T00:06:32;100026.09;;;9.07;96.79
69982;BME280;57319;56.274;43.980;2023-09-12T00:08:57;100028.63;;;9.10;97.00
69982;BME280;57319;56.274;43.980;2023-09-12T00:11:23;100029.47;;;9.15;97.08
69982;BME280;57319;56.274;43.980;2023-09-12T00:13:51;100029.47;;;9.18;96.98
69982;BME280;57319;56.274;43.980;2023-09-12T00:16:17;100032.88;;;9.23;97.08
69982;BME280;57319;56.274;43.980;2023-09-12T00:18:43;100038.84;;;9.27;97.30
69982;BME280;57319;56.274;43.980;2023-09-12T00:21:09;100041.41;;;9.27;97.12
69982;BME280;57319;56.274;43.980;2023-09-12T00:23:35;100031.16;;;9.22;97.20
69982;BME280;57319;56.274;43.980;2023-09-12T00:26:01;100027.72;;;9.22;97.13
69982;BME280;57319;56.274;43.980;2023-09-12T00:28:26;100030.31;;;9.20;97.30
69982;BME280;57319;56.274;43.980;2023-09-12T00:30:52;100032.91;;;9.14;97.83
69982;BME280;57319;56.274;43.980;2023-09-12T00:33:18;100038.03;;;9.14;97.77
69982;BME280;57319;56.274;43.980;2023-09-12T00:35:44;100041.47;;;9.11;97.75
69982;BME280;57319;56.274;43.980;2023-09-12T00:38:10;100041.47;;;9.10;97.68
69982;BME280;57319;56.274;43.980;2023-09-12T00:40:36;100044.03;;;9.10;97.67
69982;BME280;57319;56.274;43.980;2023-09-12T00:43:03;100041.50;;;9.07;97.70
69982;BME280;57319;56.274;43.980;2023-09-12T00:45:28;100042.34;;;9.06;97.72
69982;BME280;57319;56.274;43.980;2023-09-12T00:47:55;100049.16;;;9.04;97.88
69982;BME280;57319;56.274;43.980;2023-09-12T00:50:25;100050.91;;;9.00;98.21
69982;BME280;57319;56.274;43.980;2023-09-12T00:52:54;100047.47;;;9.01;98.08
69982;BME280;57319;56.274;43.980;2023-09-12T00:55:21;100042.34;;;8.98;97.99
69982;BME280;57319;56.274;43.980;2023-09-12T00:57:48;100050.91;;;8.95;97.41
69982;BME280;57319;56.274;43.980;2023-09-12T01:00:21;100058.63;;;8.91;97.70
69982;BME280;57319;56.274;43.980;2023-09-12T01:02:48;100053.50;;;8.88;97.60
69982;BME280;57319;56.274;43.980;2023-09-12T01:05:20;100050.94;;;8.86;97.78
69982;BME280;57319;56.274;43.980;2023-09-12T01:07:48;100054.31;;;8.90;98.05
69982;BME280;57319;56.274;43.980;2023-09-12T01:10:14;100046.66;;;8.94;98.14
69982;BME280;57319;56.274;43.980;2023-09-12T01:12:39;100057.72;;;8.99;98.36
69982;BME280;57319;56.274;43.980;2023-09-12T01:15:06;100057.75;;;9.03;98.58
69982;BME280;57319;56.274;43.980;2023-09-12T01:17:41;100062.88;;;9.03;98.30
69982;BME280;57319;56.274;43.980;2023-09-12T01:20:09;100059.44;;;9.02;98.49
69982;BME280;57319;56.274;43.980;2023-09-12T01:22:56;100059.44;;;9.04;98.35
69982;BME280;57319;56.274;43.980;2023-09-12T01:28:02;100065.44;;;9.01;98.37
69982;BME280;57319;56.274;43.980;2023-09-12T01:30:32;100068.88;;;9.02;98.25
69982;BME280;57319;56.274;43.980;2023-09-12T01:33:00;100070.56;;;8.99;98.34
69982;BME280;57319;56.274;43.980;2023-09-12T01:35:26;100074.88;;;8.99;98.62
69982;BME280;57319;56.274;43.980;2023-09-12T01:37:52;100076.56;;;8.95;98.29
69982;BME280;57319;56.274;43.980;2023-09-12T01:40:20;100075.72;;;8.92;98.21
69982;BME280;57319;56.274;43.980;2023-09-12T01:42:52;100072.31;;;8.85;98.10
69982;BME280;57319;56.274;43.980;2023-09-12T01:45:18;100069.75;;;8.83;98.49
69982;BME280;57319;56.274;43.980;2023-09-12T01:47:45;100069.75;;;8.83;98.59
69982;BME280;57319;56.274;43.980;2023-09-12T01:50:13;100075.72;;;8.84;98.79
69982;BME280;57319;56.274;43.980;2023-09-12T01:52:40;100076.59;;;8.86;99.05
69982;BME280;57319;56.274;43.980;2023-09-12T01:55:07;100081.72;;;8.86;98.88
69982;BME280;57319;56.274;43.980;2023-09-12T01:57:35;100080.88;;;8.84;98.77
69982;BME280;57319;56.274;43.980;2023-09-12T02:00:06;100086.00;;;8.78;99.60
69982;BME280;57319;56.274;43.980;2023-09-12T02:02:32;100088.56;;;8.79;99.84
69982;BME280;57319;56.274;43.980;2023-09-12T02:07:36;100096.25;;;8.84;99.36
69982;BME280;57319;56.274;43.980;2023-09-12T02:10:04;100097.97;;;8.85;99.55
69982;BME280;57319;56.274;43.980;2023-09-12T02:12:31;100097.13;;;8.83;99.54
69982;BME280;57319;56.274;43.980;2023-09-12T02:14:57;100100.56;;;8.85;99.38
69982;BME280;57319;56.274;43.980;2023-09-12T02:17:23;100097.09;;;8.85;99.31
69982;BME280;57319;56.274;43.980;2023-09-12T02:19:49;100105.69;;;8.82;99.04
69982;BME280;57319;56.274;43.980;2023-09-12T02:22:15;100115.94;;;8.76;98.59
69982;BME280;57319;56.274;43.980;2023-09-12T02:24:40;100118.53;;;8.70;98.39
69982;BME280;57319;56.274;43.980;2023-09-12T02:27:06;100119.34;;;8.62;98.63
69982;BME280;57319;56.274;43.980;2023-09-12T02:29:32;100127.91;;;8.63;98.68
69982;BME280;57319;56.274;43.980;2023-09-12T02:32:00;100136.47;;;8.62;98.82
69982;BME280;57319;56.274;43.980;2023-09-12T02:34:28;100126.19;;;8.62;98.78
69982;BME280;57319;56.274;43.980;2023-09-12T02:36:56;100131.31;;;8.63;98.99
69982;BME280;57319;56.274;43.980;2023-09-12T02:39:23;100127.03;;;8.62;99.14
69982;BME280;57319;56.274;43.980;2023-09-12T02:41:50;100128.75;;;8.60;99.07
69982;BME280;57319;56.274;43.980;2023-09-12T02:44:17;100133.03;;;8.60;99.21
69982;BME280;57319;56.274;43.980;2023-09-12T02:46:44;100140.75;;;8.64;99.09
69982;BME280;57319;56.274;43.980;2023-09-12T02:49:09;100135.59;;;8.66;99.21
69982;BME280;57319;56.274;43.980;2023-09-12T02:51:38;100144.16;;;8.68;99.30
69982;BME280;57319;56.274;43.980;2023-09-12T02:54:04;100146.72;;;8.66;99.52
69982;BME280;57319;56.274;43.980;2023-09-12T02:56:30;100155.28;;;8.70;99.52
69982;BME280;57319;56.274;43.980;2023-09-12T02:58:56;100159.56;;;8.71;99.43
69982;BME280;57319;56.274;43.980;2023-09-12T03:01:22;100151.88;;;8.74;99.28
69982;BME280;57319;56.274;43.980;2023-09-12T03:03:48;100164.69;;;8.76;99.37
69982;BME280;57319;56.274;43.980;2023-09-12T03:06:16;100153.56;;;8.72;99.43
69982;BME280;57319;56.274;43.980;2023-09-12T03:08:42;100157.84;;;8.75;99.11
69982;BME280;57319;56.274;43.980;2023-09-12T03:11:09;100151.03;;;8.75;99.21
69982;BME280;57319;56.274;43.980;2023-09-12T03:13:37;100160.41;;;8.75;99.02
69982;BME280;57319;56.274;43.980;2023-09-12T03:16:03;100162.13;;;8.76;99.20
69982;BME280;57319;56.274;43.980;2023-09-12T03:18:30;100167.25;;;8.79;99.44
69982;BME280;57319;56.274;43.980;2023-09-12T03:20:56;100171.56;;;8.80;99.29
69982;BME280;57319;56.274;43.980;2023-09-12T03:23:24;100166.41;;;8.81;98.92
69982;BME280;57319;56.274;43.980;2023-09-12T03:25:50;100172.41;;;8.80;99.02
69982;BME280;57319;56.274;43.980;2023-09-12T03:28:16;100177.56;;;8.83;99.11
69982;BME280;57319;56.274;43.980;2023-09-12T03:30:44;100176.72;;;8.86;99.29
69982;BME280;57319;56.274;43.980;2023-09-12T03:33:09;100164.72;;;8.87;99.00
69982;BME280;57319;56.274;43.980;2023-09-12T03:35:35;100174.97;;;8.90;99.26
69982;BME280;57319;56.274;43.980;2023-09-12T03:38:01;100177.53;;;8.93;99.14
69982;BME280;57319;56.274;43.980;2023-09-12T03:40:31;100180.97;;;8.95;99.25
69982;BME280;57319;56.274;43.980;2023-09-12T03:42:57;100187.84;;;8.99;99.02
69982;BME280;57319;56.274;43.980;2023-09-12T03:45:23;100195.53;;;8.99;98.78
69982;BME280;57319;56.274;43.980;2023-09-12T03:47:49;100192.97;;;8.97;98.63
69982;BME280;57319;56.274;43.980;2023-09-12T03:50:15;100192.97;;;8.94;98.63
69982;BME280;57319;56.274;43.980;2023-09-12T03:52:40;100193.81;;;8.95;98.63
69982;BME280;57319;56.274;43.980;2023-09-12T03:55:06;100195.53;;;8.96;98.85
69982;BME280;57319;56.274;43.980;2023-09-12T03:57:32;100198.09;;;9.04;99.17
69982;BME280;57319;56.274;43.980;2023-09-12T03:59:58;100197.25;;;9.14;98.99
69982;BME280;57319;56.274;43.980;2023-09-12T04:02:24;100200.66;;;9.28;98.99
69982;BME280;57319;56.274;43.980;2023-09-12T04:04:49;100193.84;;;9.40;98.83
69982;BME280;57319;56.274;43.980;2023-09-12T04:07:15;100198.09;;;9.48;98.73
69982;BME280;57319;56.274;43.980;2023-09-12T04:09:41;100204.06;;;9.58;98.68
69982;BME280;57319;56.274;43.980;2023-09-12T04:12:06;100211.78;;;9.69;98.33
69982;BME280;57319;56.274;43.980;2023-09-12T04:14:34;100212.59;;;9.83;98.44
69982;BME280;57319;56.274;43.980;2023-09-12T04:17:00;100206.56;;;9.98;98.12
69982;BME280;57319;56.274;43.980;2023-09-12T04:19:26;100211.66;;;10.09;97.86
69982;BME280;57319;56.274;43.980;2023-09-12T04:21:51;100210.75;;;10.26;97.43
69982;BME280;57319;56.274;43.980;2023-09-12T04:24:17;100215.03;;;10.39;96.93
69982;BME280;57319;56.274;43.980;2023-09-12T04:26:43;100208.94;;;10.49;95.68
69982;BME280;57319;56.274;43.980;2023-09-12T04:29:10;100209.78;;;10.55;95.38
69982;BME280;57319;56.274;43.980;2023-09-12T04:31:35;100207.16;;;10.65;95.19
69982;BME280;57319;56.274;43.980;2023-09-12T04:34:01;100204.53;;;10.70;94.97
69982;BME280;57319;56.274;43.980;2023-09-12T04:36:27;100216.53;;;10.79;94.78
69982;BME280;57319;56.274;43.980;2023-09-12T04:38:53;100215.59;;;10.88;94.68
69982;BME280;57319;56.274;43.980;2023-09-12T04:41:18;100212.13;;;10.92;93.55
69982;BME280;57319;56.274;43.980;2023-09-12T04:43:44;100212.97;;;10.95;93.65
69982;BME280;57319;56.274;43.980;2023-09-12T04:46:13;100219.81;;;10.99;93.67
69982;BME280;57319;56.274;43.980;2023-09-12T04:48:40;100214.59;;;11.07;92.70
69982;BME280;57319;56.274;43.980;2023-09-12T04:51:06;100217.19;;;11.10;92.60
69982;BME280;57319;56.274;43.980;2023-09-12T04:53:32;100217.16;;;11.12;92.29
69982;BME280;57319;56.274;43.980;2023-09-12T04:56:04;100215.44;;;11.11;91.73
69982;BME280;57319;56.274;43.980;2023-09-12T04:58:32;100220.63;;;11.08;91.65
69982;BME280;57319;56.274;43.980;2023-09-12T05:00:57;100224.09;;;11.03;92.11
69982;BME280;57319;56.274;43.980;2023-09-12T05:03:23;100222.31;;;11.07;92.30
69982;BME280;57319;56.274;43.980;2023-09-12T05:05:49;100225.59;;;11.28;91.96
69982;BME280;57319;56.274;43.980;2023-09-12T05:08:17;100230.75;;;11.32;92.32
69982;BME280;57319;56.274;43.980;2023-09-12T05:10:46;100221.16;;;11.47;91.63
69982;BME280;57319;56.274;43.980;2023-09-12T05:13:12;100236.50;;;11.64;91.18
69982;BME280;57319;56.274;43.980;2023-09-12T05:15:40;100232.97;;;11.71;90.42
69982;BME280;57319;56.274;43.980;2023-09-12T05:18:06;100226.91;;;11.77;90.26
69982;BME280;57319;56.274;43.980;2023-09-12T05:20:32;100228.63;;;11.78;90.00
69982;BME280;57319;56.274;43.980;2023-09-12T05:22:58;100226.84;;;11.83;89.47
69982;BME280;57319;56.274;43.980;2023-09-12T05:25:24;100231.09;;;11.85;89.68
69982;BME280;57319;56.274;43.980;2023-09-12T05:27:50;100224.09;;;12.01;89.85
69982;BME280;57319;56.274;43.980;2023-09-12T05:30:15;100231.81;;;12.03;89.44
69982;BME280;57319;56.274;43.980;2023-09-12T05:32:41;100233.44;;;12.10;88.93
69982;BME280;57319;56.274;43.980;2023-09-12T05:35:07;100240.19;;;12.24;88.35
69982;BME280;57319;56.274;43.980;2023-09-12T05:37:33;100235.00;;;12.25;88.52
69982;BME280;57319;56.274;43.980;2023-09-12T05:39:58;100229.06;;;12.17;88.14
69982;BME280;57319;56.274;43.980;2023-09-12T05:42:24;100235.69;;;12.39;87.87
69982;BME280;57319;56.274;43.980;2023-09-12T05:44:50;100237.41;;;12.41;87.60
69982;BME280;57319;56.274;43.980;2023-09-12T05:47:19;100244.22;;;12.46;87.01
69982;BME280;57319;56.274;43.980;2023-09-12T05:49:45;100245.81;;;12.55;86.82
69982;BME280;57319;56.274;43.980;2023-09-12T05:52:11;100245.78;;;12.58;86.72
69982;BME280;57319;56.274;43.980;2023-09-12T05:54:37;100244.84;;;12.62;86.40
69982;BME280;57319;56.274;43.980;2023-09-12T05:57:04;100238.84;;;12.62;86.08
69982;BME280;57319;56.274;43.980;2023-09-12T05:59:30;100243.16;;;12.60;86.11
69982;BME280;57319;56.274;43.980;2023-09-12T06:01:56;100247.53;;;12.56;86.25
69982;BME280;57319;56.274;43.980;2023-09-12T06:04:21;100250.91;;;12.61;85.75
69982;BME280;57319;56.274;43.980;2023-09-12T06:06:47;100247.03;;;12.26;85.92
69982;BME280;57319;56.274;43.980;2023-09-12T06:09:13;100248.78;;;12.26;86.95
69982;BME280;57319;56.274;43.980;2023-09-12T06:11:38;100257.09;;;12.49;86.01
69982;BME280;57319;56.274;43.980;2023-09-12T06:14:04;100260.56;;;12.45;86.32
69982;BME280;57319;56.274;43.980;2023-09-12T06:16:30;100255.19;;;12.62;86.01
69982;BME280;57319;56.274;43.980;2023-09-12T06:18:55;100259.41;;;12.69;84.99
69982;BME280;57319;56.274;43.980;2023-09-12T06:21:21;100260.22;;;12.71;84.42
69982;BME280;57319;56.274;43.980;2023-09-12T06:24:08;100267.13;;;12.72;84.63
69982;BME280;57319;56.274;43.980;2023-09-12T06:26:33;100266.38;;;12.63;84.63
69982;BME280;57319;56.274;43.980;2023-09-12T06:28:59;100278.34;;;12.70;84.76
69982;BME280;57319;56.274;43.980;2023-09-12T06:31:24;100270.53;;;12.73;84.51
69982;BME280;57319;56.274;43.980;2023-09-12T06:33:50;100281.56;;;12.87;84.20
69982;BME280;57319;56.274;43.980;2023-09-12T06:36:15;100277.19;;;12.91;83.56
69982;BME280;57319;56.274;43.980;2023-09-12T06:38:43;100281.16;;;13.15;83.25
69982;BME280;57319;56.274;43.980;2023-09-12T06:41:08;100283.50;;;13.31;82.22
69982;BME280;57319;56.274;43.980;2023-09-12T06:43:34;100278.25;;;13.38;82.14
69982;BME280;57319;56.274;43.980;2023-09-12T06:45:59;100278.13;;;13.45;81.66
69982;BME280;57319;56.274;43.980;2023-09-12T06:48:25;100281.72;;;13.37;81.34
69982;BME280;57319;56.274;43.980;2023-09-12T06:50:51;100280.50;;;13.58;81.13
69982;BME280;57319;56.274;43.980;2023-09-12T06:53:17;100282.88;;;13.72;80.94
69982;BME280;57319;56.274;43.980;2023-09-12T06:55:43;100283.81;;;13.67;80.19
69982;BME280;57319;56.274;43.980;2023-09-12T06:58:08;100298.41;;;13.69;80.80
69982;BME280;57319;56.274;43.980;2023-09-12T07:00:34;100291.44;;;13.74;80.70
69982;BME280;57319;56.274;43.980;2023-09-12T07:03:00;100287.00;;;13.83;80.64
69982;BME280;57319;56.274;43.980;2023-09-12T07:05:25;100291.97;;;13.94;80.42
69982;BME280;57319;56.274;43.980;2023-09-12T07:07:52;100284.09;;;14.01;80.12
69982;BME280;57319;56.274;43.980;2023-09-12T07:10:18;100287.38;;;14.08;78.78
69982;BME280;57319;56.274;43.980;2023-09-12T07:12:44;100294.97;;;14.19;78.14
69982;BME280;57319;56.274;43.980;2023-09-12T07:15:10;100295.63;;;14.30;77.53
69982;BME280;57319;56.274;43.980;2023-09-12T07:17:35;100297.06;;;14.43;77.42
69982;BME280;57319;56.274;43.980;2023-09-12T07:20:01;100291.81;;;14.48;76.65
69982;BME280;57319;56.274;43.980;2023-09-12T07:22:30;100299.38;;;14.57;76.24
69982;BME280;57319;56.274;43.980;2023-09-12T07:24:59;100301.84;;;14.65;75.69
69982;BME280;57319;56.274;43.980;2023-09-12T07:27:25;100294.78;;;14.73;75.51
69982;BME280;57319;56.274;43.980;2023-09-12T07:29:51;100295.56;;;14.77;75.00
69982;BME280;57319;56.274;43.980;2023-09-12T07:32:17;100304.06;;;14.84;73.71
69982;BME280;57319;56.274;43.980;2023-09-12T07:34:42;100302.47;;;14.76;73.98
69982;BME280;57319;56.274;43.980;2023-09-12T07:37:14;100308.31;;;14.88;74.19
69982;BME280;57319;56.274;43.980;2023-09-12T07:39:39;100301.25;;;14.93;74.14
69982;BME280;57319;56.274;43.980;2023-09-12T07:42:05;100303.72;;;14.99;74.08
69982;BME280;57319;56.274;43.980;2023-09-12T07:44:31;100302.34;;;14.83;72.81
69982;BME280;57319;56.274;43.980;2023-09-12T07:46:56;100299.88;;;14.76;72.89
69982;BME280;57319;56.274;43.980;2023-09-12T07:49:22;100301.63;;;14.76;73.12
69982;BME280;57319;56.274;43.980;2023-09-12T07:51:51;100307.56;;;14.81;73.51
69982;BME280;57319;56.274;43.980;2023-09-12T07:54:17;100308.31;;;14.88;73.41
69982;BME280;57319;56.274;43.980;2023-09-12T07:56:43;100306.69;;;14.81;73.72
69982;BME280;57319;56.274;43.980;2023-09-12T07:59:09;100304.84;;;14.87;73.24
69982;BME280;57319;56.274;43.980;2023-09-12T08:01:37;100305.72;;;14.88;73.22
69982;BME280;57319;56.274;43.980;2023-09-12T08:04:04;100306.09;;;14.69;73.41
69982;BME280;57319;56.274;43.980;2023-09-12T08:06:29;100302.91;;;14.53;73.05
69982;BME280;57319;56.274;43.980;2023-09-12T08:08:56;100309.75;;;14.57;73.47
69982;BME280;57319;56.274;43.980;2023-09-12T08:11:22;100306.97;;;14.68;73.72
69982;BME280;57319;56.274;43.980;2023-09-12T08:13:50;100312.78;;;14.80;73.19
69982;BME280;57319;56.274;43.980;2023-09-12T08:16:16;100307.50;;;14.84;72.60
69982;BME280;57319;56.274;43.980;2023-09-12T08:18:42;100312.59;;;14.87;72.31
69982;BME280;57319;56.274;43.980;2023-09-12T08:21:08;100308.03;;;14.99;71.78
69982;BME280;57319;56.274;43.980;2023-09-12T08:23:33;100314.81;;;15.06;71.35
69982;BME280;57319;56.274;43.980;2023-09-12T08:25:59;100304.25;;;15.14;71.24
69982;BME280;57319;56.274;43.980;2023-09-12T08:28:25;100299.91;;;15.16;70.80
69982;BME280;57319;56.274;43.980;2023-09-12T08:30:51;100298.88;;;15.23;69.95
69982;BME280;57319;56.274;43.980;2023-09-12T08:33:17;100302.13;;;15.31;69.45
69982;BME280;57319;56.274;43.980;2023-09-12T08:35:43;100302.13;;;15.31;68.56
69982;BME280;57319;56.274;43.980;2023-09-12T08:38:08;100301.13;;;15.37;68.78
69982;BME280;57319;56.274;43.980;2023-09-12T08:40:34;100295.81;;;15.43;68.61
69982;BME280;57319;56.274;43.980;2023-09-12T08:43:01;100303.34;;;15.54;68.22
69982;BME280;57319;56.274;43.980;2023-09-12T08:45:29;100303.91;;;15.65;67.87
69982;BME280;57319;56.274;43.980;2023-09-12T08:47:59;100293.53;;;15.65;67.46
69982;BME280;57319;56.274;43.980;2023-09-12T08:50:26;100304.56;;;15.73;67.30
69982;BME280;57319;56.274;43.980;2023-09-12T08:52:56;100294.59;;;15.58;67.10
69982;BME280;57319;56.274;43.980;2023-09-12T08:55:22;100295.25;;;15.66;67.32
69982;BME280;57319;56.274;43.980;2023-09-12T08:57:50;100292.56;;;15.69;66.29
69982;BME280;57319;56.274;43.980;2023-09-12T09:00:16;100296.84;;;15.72;66.37
69982;BME280;57319;56.274;43.980;2023-09-12T09:02:43;100294.06;;;15.78;66.24
69982;BME280;57319;56.274;43.980;2023-09-12T09:05:10;100291.41;;;15.81;64.91
69982;BME280;57319;56.274;43.980;2023-09-12T09:07:41;100291.28;;;15.87;63.94
69982;BME280;57319;56.274;43.980;2023-09-12T09:10:09;100285.03;;;15.94;63.90
69982;BME280;57319;56.274;43.980;2023-09-12T09:12:35;100293.50;;;16.01;63.11
69982;BME280;57319;56.274;43.980;2023-09-12T09:15:40;100286.69;;;15.97;61.73
69982;BME280;57319;56.274;43.980;2023-09-12T09:18:06;100284.78;;;16.04;61.87
69982;BME280;57319;56.274;43.980;2023-09-12T09:20:34;100289.84;;;16.08;62.22
69982;BME280;57319;56.274;43.980;2023-09-12T09:23:05;100285.25;;;16.18;61.72
69982;BME280;57319;56.274;43.980;2023-09-12T09:25:32;100289.25;;;16.30;61.44
69982;BME280;57319;56.274;43.980;2023-09-12T09:27:58;100283.78;;;16.41;61.56
69982;BME280;57319;56.274;43.980;2023-09-12T09:30:44;100281.84;;;16.48;61.71
69982;BME280;57319;56.274;43.980;2023-09-12T09:33:11;100286.09;;;16.50;60.60
69982;BME280;57319;56.274;43.980;2023-09-12T09:35:37;100279.97;;;16.53;60.32
69982;BME280;57319;56.274;43.980;2023-09-12T09:38:08;100278.44;;;16.45;59.79
69982;BME280;57319;56.274;43.980;2023-09-12T09:40:34;100283.56;;;16.49;59.40
69982;BME280;57319;56.274;43.980;2023-09-12T09:43:03;100281.91;;;16.46;58.10
69982;BME280;57319;56.274;43.980;2023-09-12T09:45:29;100279.88;;;16.56;57.84
69982;BME280;57319;56.274;43.980;2023-09-12T09:48:04;100285.75;;;16.62;56.65
69982;BME280;57319;56.274;43.980;2023-09-12T09:50:34;100287.41;;;16.65;57.10
69982;BME280;57319;56.274;43.980;2023-09-12T09:53:03;100287.03;;;16.48;56.28
69982;BME280;57319;56.274;43.980;2023-09-12T09:55:30;100285.34;;;16.47;55.62
69982;BME280;57319;56.274;43.980;2023-09-12T09:57:58;100286.50;;;16.66;55.99
69982;BME280;57319;56.274;43.980;2023-09-12T10:00:24;100280.59;;;16.91;55.66
69982;BME280;57319;56.274;43.980;2023-09-12T10:02:51;100275.69;;;17.10;56.39
69982;BME280;57319;56.274;43.980;2023-09-12T10:05:18;100281.16;;;17.29;56.07
69982;BME280;57319;56.274;43.980;2023-09-12T10:07:47;100291.88;;;17.46;55.68
69982;BME280;57319;56.274;43.980;2023-09-12T10:10:14;100287.16;;;17.31;55.54
69982;BME280;57319;56.274;43.980;2023-09-12T10:12:55;100283.34;;;17.15;54.14
69982;BME280;57319;56.274;43.980;2023-09-12T10:15:22;100283.91;;;16.96;53.93
69982;BME280;57319;56.274;43.980;2023-09-12T10:17:59;100283.41;;;16.83;54.85
69982;BME280;57319;56.274;43.980;2023-09-12T10:20:35;100285.25;;;16.79;56.15
69982;BME280;57319;56.274;43.980;2023-09-12T10:23:09;100286.75;;;16.58;56.15
69982;BME280;57319;56.274;43.980;2023-09-12T10:25:36;100288.88;;;16.74;56.49
69982;BME280;57319;56.274;43.980;2023-09-12T10:28:04;100283.97;;;16.94;56.02
69982;BME280;57319;56.274;43.980;2023-09-12T10:30:32;100285.91;;;17.16;55.31
69982;BME280;57319;56.274;43.980;2023-09-12T10:33:01;100283.41;;;17.40;54.30
69982;BME280;57319;56.274;43.980;2023-09-12T10:35:27;100286.09;;;17.63;54.08
69982;BME280;57319;56.274;43.980;2023-09-12T10:37:55;100274.63;;;17.96;53.29
69982;BME280;57319;56.274;43.980;2023-09-12T10:40:24;100276.34;;;18.21;52.76
69982;BME280;57319;56.274;43.980;2023-09-12T10:42:52;100274.09;;;18.35;52.29
69982;BME280;57319;56.274;43.980;2023-09-12T10:45:20;100269.63;;;18.39;52.00
69982;BME280;57319;56.274;43.980;2023-09-12T10:47:46;100273.75;;;18.44;52.00
69982;BME280;57319;56.274;43.980;2023-09-12T10:50:12;100279.78;;;18.45;51.54
69982;BME280;57319;56.274;43.980;2023-09-12T10:52:39;100277.94;;;18.48;50.26
69982;BME280;57319;56.274;43.980;2023-09-12T10:55:07;100278.28;;;18.39;50.97
69982;BME280;57319;56.274;43.980;2023-09-12T10:57:33;100276.63;;;18.13;51.21
69982;BME280;57319;56.274;43.980;2023-09-12T11:02:37;100276.75;;;18.34;51.07
69982;BME280;57319;56.274;43.980;2023-09-12T11:05:05;100277.56;;;18.81;50.02
69982;BME280;57319;56.274;43.980;2023-09-12T11:12:42;100272.97;;;19.96;45.19
69982;BME280;57319;56.274;43.980;2023-09-12T11:15:09;100274.44;;;19.82;46.21
69982;BME280;57319;56.274;43.980;2023-09-12T11:17:38;100279.91;;;19.33;46.42
69982;BME280;57319;56.274;43.980;2023-09-12T11:20:05;100277.91;;;18.72;48.23
69982;BME280;57319;56.274;43.980;2023-09-12T11:22:37;100272.72;;;18.25;48.76
69982;BME280;57319;56.274;43.980;2023-09-12T11:25:25;100287.97;;;17.85;49.46
69982;BME280;57319;56.274;43.980;2023-09-12T11:30:18;100280.88;;;17.38;50.75
69982;BME280;57319;56.274;43.980;2023-09-12T11:32:45;100279.44;;;17.28;51.28
69982;BME280;57319;56.274;43.980;2023-09-12T11:35:13;100277.06;;;17.22;51.48
69982;BME280;57319;56.274;43.980;2023-09-12T11:37:39;100274.56;;;17.17;51.89
69982;BME280;57319;56.274;43.980;2023-09-12T11:42:42;100275.00;;;17.03;52.47
69982;BME280;57319;56.274;43.980;2023-09-12T11:45:09;100273.41;;;16.99;52.34
69982;BME280;57319;56.274;43.980;2023-09-12T11:47:40;100280.41;;;16.97;52.56
69982;BME280;57319;56.274;43.980;2023-09-12T11:50:06;100276.16;;;16.94;52.83
69982;BME280;57319;56.274;43.980;2023-09-12T11:52:36;100272.53;;;17.00;52.67
69982;BME280;57319;56.274;43.980;2023-09-12T11:55:03;100274.44;;;17.22;52.50
69982;BME280;57319;56.274;43.980;2023-09-12T11:57:29;100273.53;;;17.50;52.14
69982;BME280;57319;56.274;43.980;2023-09-12T11:59:55;100277.22;;;17.69;50.42
69982;BME280;57319;56.274;43.980;2023-09-12T12:02:21;100263.91;;;18.29;49.71
69982;BME280;57319;56.274;43.980;2023-09-12T12:04:47;100271.66;;;18.54;49.52
69982;BME280;57319;56.274;43.980;2023-09-12T12:07:13;100262.22;;;18.74;48.79
69982;BME280;57319;56.274;43.980;2023-09-12T12:09:42;100263.13;;;18.73;48.72
69982;BME280;57319;56.274;43.980;2023-09-12T12:12:14;100262.06;;;18.78;48.07
69982;BME280;57319;56.274;43.980;2023-09-12T12:14:41;100263.19;;;18.71;48.56
69982;BME280;57319;56.274;43.980;2023-09-12T12:17:11;100273.19;;;18.82;48.01
69982;BME280;57319;56.274;43.980;2023-09-12T12:19:38;100269.75;;;18.81;47.90
69982;BME280;57319;56.274;43.980;2023-09-12T12:22:05;100261.31;;;18.75;48.36
69982;BME280;57319;56.274;43.980;2023-09-12T12:24:44;100273.03;;;18.87;47.45
69982;BME280;57319;56.274;43.980;2023-09-12T12:27:10;100262.34;;;19.17;47.58
69982;BME280;57319;56.274;43.980;2023-09-12T12:29:37;100273.19;;;19.28;46.05
69982;BME280;57319;56.274;43.980;2023-09-12T12:32:05;100272.41;;;19.46;45.91
69982;BME280;57319;56.274;43.980;2023-09-12T12:34:31;100270.41;;;19.53;45.85
69982;BME280;57319;56.274;43.980;2023-09-12T12:36:57;100273.22;;;19.48;46.14
69982;BME280;57319;56.274;43.980;2023-09-12T12:39:23;100271.13;;;19.57;45.77
69982;BME280;57319;56.274;43.980;2023-09-12T12:41:54;100264.66;;;19.45;46.11
69982;BME280;57319;56.274;43.980;2023-09-12T12:44:20;100267.84;;;19.52;46.11
69982;BME280;57319;56.274;43.980;2023-09-12T12:46:51;100259.34;;;19.46;45.73
69982;BME280;57319;56.274;43.980;2023-09-12T12:49:23;100266.72;;;19.37;45.83
69982;BME280;57319;56.274;43.980;2023-09-12T12:51:48;100273.00;;;19.10;46.32
69982;BME280;57319;56.274;43.980;2023-09-12T12:54:15;100274.28;;;18.76;47.43
69982;BME280;57319;56.274;43.980;2023-09-12T12:56:41;100280.47;;;18.97;47.62
69982;BME280;57319;56.274;43.980;2023-09-12T12:59:11;100273.88;;;19.31;47.48
69982;BME280;57319;56.274;43.980;2023-09-12T13:01:38;100273.22;;;19.69;46.71